CheckWX is a tool to help pilots better visualize weather data.  It is not intended as a substitute for an official pre-flight weather briefing.

13:45:33 UTC

KLKV METAR
Lake County Airport
Lakeview, Oregon, USA
Current

53 mins ago

KLKV 201253Z AUTO 34007KT 10SM CLR 08/00 A3007 RMK AO2 SLP150 T00830000
Observed
Jul-20 @ 12:53 UTC
Wind
  • 340° at 7 KTS
Visibility
10 SM
Flight Rules
VFR
Cloud Levels
  • Clear skies
Temperature
C / 46°F
Dewpoint
C / 32°F
Humidity
57%
Altimeter
30.07" Hg
Pressure
1018.32 hPa
Previous

2 hours ago

KLKV 201153Z AUTO 33007KT 10SM CLR 12/00 A3006 RMK AO2 SLP143 T01170000 10178 20117 52002
Observed
Jul-20 @ 11:53 UTC
Wind
  • 330° at 7 KTS
Visibility
10 SM
Flight Rules
VFR
Cloud Levels
  • Clear skies
Temperature
12°C / 54°F
Dewpoint
C / 32°F
Humidity
44%
Altimeter
30.06" Hg
Pressure
1017.92 hPa
Previous

3 hours ago

KLKV 201053Z AUTO 35011KT 10SM FEW065 13/M02 A3006 RMK AO2 SLP138 T01331017
Observed
Jul-20 @ 10:53 UTC
Wind
  • 350° at 11 KTS
Visibility
10 SM
Flight Rules
VFR
Cloud Levels
  • Few at 6,500' AGL
Temperature
13°C / 55°F
Dewpoint
-2°C / 28°F
Humidity
36%
Altimeter
30.06" Hg
Pressure
1017.92 hPa